Latest Coastal Weather Observations for Yamba

IDN60701

Issued at 4:52 am EDT Sunday 21 December 2014 (issued every 10 minutes, with the page automatically refreshed every 10 minutes)

About coastal observations | Map of coastal stations | Coastal observations for NSW | Marine services | Other Formats
Station Details ID: 058012 Name: YAMBA PILOT STATION Lat: -29.43 Lon: 153.36 Height: 27.4 m
Data from the previous 72 hours. | See also: Recent months at Yamba
Date/Time
EDT
Temp

°C
Wind Pressure Rain
since 9am
mm
Weather Cloud Vis
km
Sea
Height
m
Swell
Dir
 
Speed
knots
Gust
knots
hPa Trend Height
m
Period
s
Dir
21/04:30am 22.7 NNE 5 7 1016.5 - 0.0 - - - - - - -
21/04:00am 22.7 ENE 5 10 1016.5 - 0.0 - - - - - - -
21/03:30am 22.7 ENE 6 9 1016.5 - 0.0 - - - - - - -
21/03:00am 22.8 ENE 5 8 1016.4 - 0.0 - - - - - - -
21/02:30am 22.8 NE 5 9 1017.1 - 0.0 - - - - - - -
21/02:00am 22.8 ENE 6 9 1017.3 - 0.0 - - - - - - -
21/01:30am 22.7 ENE 7 10 1017.5 - 0.0 - - - - - - -
21/01:00am 22.8 ENE 6 9 1017.8 - 0.0 - - - - - - -
21/12:30am 22.7 E 7 10 1018.0 - 0.0 - - - - - - -
21/12:00am 22.8 E 7 11 1018.2 - 0.0 - - - - - - -
 
Date/Time
EDT
Temp

°C
Wind Pressure Rain
since 9am
mm
Weather Cloud Vis
km
Sea
Height
m
Swell
Dir
 
Speed
knots
Gust
knots
hPa Trend Height
m
Period
s
Dir
20/11:30pm 23.1 ENE 7 12 1018.2 - 0.0 - - - - - - -
20/11:00pm 23.1 ENE 7 11 1018.3 - 0.0 - - - - - - -
20/10:30pm 23.1 ENE 7 11 1018.2 - 0.0 - - - - - - -
20/10:00pm 23.1 E 7 9 1017.9 - 0.0 - - - - - - -
20/09:30pm 23.2 E 7 11 1017.5 - 0.0 - - - - - - -
20/09:00pm 23.2 E 7 11 1017.0 - 0.0 - - - - - - -
20/08:30pm 23.2 E 8 13 1016.8 - 0.0 - - - - - - -
20/08:00pm 23.3 E 8 11 1016.3 - 0.0 - - - - - - -
20/07:30pm 23.3 E 8 12 1016.0 - 0.0 - - - - - - -
20/07:00pm 23.4 E 8 13 1015.8 - 0.0 - - - - - - -
20/06:30pm 23.8 E 7 11 1015.4 - 0.0 - - - - - - -
20/06:00pm 23.9 E 7 11 1014.8 - 0.0 - - - - - - -
20/05:30pm 24.0 E 7 11 1014.8 - 0.0 - - - - - - -
20/05:00pm 24.4 E 7 9 1014.8 - 0.0 - - - - - - -
20/04:30pm 25.1 E 8 11 1014.7 - 0.0 - - - - - - -
20/04:00pm 25.3 E 8 14 1014.9 - 0.0 - - - - - - -
20/03:30pm 25.3 E 8 11 1015.4 - 0.0 - - - - - - -
20/03:00pm 24.8 E 10 15 1015.5 F 0.0 Fine Partly cloudy 35 1 1.0 8 SE
20/02:30pm 24.9 ESE 11 14 1015.8 - 0.0 - - - - - - -
20/02:00pm 25.6 ESE 10 13 1016.1 - 0.0 - - - - - - -
20/01:30pm 25.9 ESE 9 11 1016.4 - 0.0 - - - - - - -
20/01:00pm 25.2 ESE 8 10 1016.6 - 0.0 - - - - - - -
20/12:30pm 25.7 ESE 7 10 1016.9 - 0.0 - - - - - - -
20/12:00pm 25.5 ESE 8 11 1017.0 - 0.0 - - - - - - -
20/11:30am 24.4 ESE 9 12 1017.2 - 0.0 - - - - - - -
20/11:00am 24.1 SE 10 14 1017.1 - 0.0 - - - - - - -
20/10:30am 24.4 SE 11 14 1017.1 - 0.0 - - - - - - -
20/10:00am 24.0 SSE 12 15 1017.1 - 0.0 - - - - - - -
20/09:30am 23.5 SSE 10 14 1017.0 - 0.0 - - - - - - -
20/09:00am 22.9 SSE 7 11 1016.7 R 0.0 Distant precip. Mostly cloudy 30 1 1.5 8 SE
20/08:30am 23.6 SSE 8 11 1016.7 - 0.0 - - - - - - -
20/08:00am 23.7 ESE 7 10 1016.5 - 0.0 - - - - - - -
20/07:30am 22.9 ESE 9 12 1016.0 - 0.0 - - - - - - -
20/07:00am 23.2 E 4 9 1015.6 - 0.0 - - - - - - -
20/06:30am 23.0 ESE 5 8 1015.3 - 0.0 - - - - - - -
20/06:00am 22.7 ESE 9 11 1014.9 - 0.0 - - - - - - -
20/05:30am 22.8 ESE 9 13 1014.8 - 0.0 - - - - - - -
20/05:00am 22.8 ESE 11 14 1014.6 - 0.0 - - - - - - -
20/04:30am 22.8 SE 12 15 1014.4 - 0.0 - - - - - - -
20/04:00am 23.0 SE 13 16 1014.1 - 0.0 - - - - - - -
20/03:30am 22.8 SE 11 14 1014.2 - 0.0 - - - - - - -
20/03:00am 22.7 SE 11 14 1014.2 - 0.0 - - - - - - -
20/02:30am 22.7 SE 12 15 1014.6 - 0.0 - - - - - - -
20/02:00am 22.9 SE 13 16 1014.7 - 0.0 - - - - - - -
20/01:30am 23.1 SE 12 15 1015.1 - 0.0 - - - - - - -
20/01:00am 23.2 SE 11 15 1015.3 - 0.0 - - - - - - -
20/12:30am 23.1 SE 11 15 1015.5 - 0.0 - - - - - - -
20/12:00am 23.4 SE 12 17 1015.4 - 0.0 - - - - - - -
 
Date/Time
EDT
Temp

°C
Wind Pressure Rain
since 9am
mm
Weather Cloud Vis
km
Sea
Height
m
Swell
Dir
 
Speed
knots
Gust
knots
hPa Trend Height
m
Period
s
Dir
19/11:30pm 23.5 SE 16 19 1015.5 - 0.0 - - - - - - -
19/11:00pm 23.3 SE 16 20 1015.4 - 0.0 - - - - - - -
19/10:30pm 23.5 SE 14 19 1015.4 - 0.0 - - - - - - -
19/10:00pm 23.5 SE 14 18 1015.2 - 0.0 - - - - - - -
19/09:30pm 23.5 SE 15 18 1014.7 - 0.0 - - - - - - -
19/09:00pm 23.4 SE 16 20 1014.4 - 0.0 - - - - - - -
19/08:30pm 23.6 SE 15 19 1014.0 - 0.0 - - - - - - -
19/08:00pm 23.6 SE 18 23 1013.4 - 0.0 - - - - - - -
19/07:30pm 23.8 SE 15 19 1012.9 - 0.0 - - - - - - -
19/07:00pm 24.0 SE 17 21 1012.3 - 0.0 - - - - - - -
19/06:30pm 24.1 SE 16 20 1011.7 - 0.0 - - - - - - -
19/06:00pm 25.1 SE 15 21 1010.8 - 0.0 - - - - - - -
19/05:30pm 25.3 SE 15 20 1010.6 - 0.0 - - - - - - -
19/05:00pm 25.5 SE 17 23 1010.0 - 0.0 - - - - - - -
19/04:30pm 25.6 SE 18 23 1010.0 - 0.0 - - - - - - -
19/04:00pm 26.0 SE 18 24 1009.9 - 0.0 - - - - - - -
19/03:30pm 26.0 SE 20 25 1009.6 - 0.0 - - - - - - -
19/03:00pm 26.2 SE 21 26 1009.4 R 0.0 Fine Mostly clear 20 3 1.5 9 SE
19/02:30pm 26.7 SE 21 26 1009.5 - 0.0 - - - - - - -
19/02:21pm 27.2 SE 18 25 1009.6 - 0.0 - - - - - - -
19/02:20pm 27.2 SE 18 25 1009.6 - 0.0 - - - - - - -
19/02:00pm 27.5 ESE 11 15 1009.7 - 0.0 - - - - - - -
19/01:36pm 28.2 ESE 15 19 1009.2 - 0.0 - - - - - - -
19/01:30pm 29.6 E 4 8 1008.7 - 0.0 - - - - - - -
19/01:00pm 28.8 ENE 6 9 1008.9 - 0.0 - - - - - - -
19/12:30pm 30.4 ENE 4 7 1009.4 - 0.0 - - - - - - -
19/12:00pm 30.2 E 5 9 1009.5 - 0.0 - - - - - - -
19/11:30am 30.5 W 6 10 1009.6 - 0.0 - - - - - - -
19/11:00am 29.9 W 5 8 1009.7 - 0.0 - - - - - - -
19/10:30am 28.7 W 7 12 1009.9 - 0.0 - - - - - - -
19/10:00am 27.9 W 6 10 1009.9 - 0.0 - - - - - - -
19/09:30am 26.3 W 7 11 1009.8 - 0.0 - - - - - - -
19/09:00am 25.5 NW 5 9 1009.9 R 1.6 Fine Mostly clear 35 <0.5 1.0 9 SE
19/08:30am 23.9 NW 5 9 1009.9 - 1.6 - - - - - - -
19/08:00am 23.0 NNW 4 6 1009.8 - 1.6 - - - - - - -
19/07:30am 22.1 NW 6 9 1009.7 - 1.6 - - - - - - -
19/07:00am 21.6 NW 7 10 1009.5 - 1.6 - - - - - - -
19/06:30am 20.8 NNW 4 6 1009.3 - 1.6 - - - - - - -
19/06:00am 20.8 NNW 5 8 1008.9 - 1.6 - - - - - - -
19/05:30am 21.4 NNW 6 9 1008.7 - 1.6 - - - - - - -
19/05:00am 21.5 NNW 7 10 1008.7 - 1.6 - - - - - - -
19/04:30am 21.6 NNW 7 10 1009.0 - 1.6 - - - - - - -
19/04:00am 21.8 NW 7 11 1008.9 - 1.6 - - - - - - -
19/03:30am 22.0 NNW 8 12 1008.7 - 1.6 - - - - - - -
19/03:00am 22.2 NNW 8 13 1008.7 - 1.6 - - - - - - -
19/02:30am 22.1 NNW 10 15 1009.0 - 1.6 - - - - - - -
19/02:00am 22.3 NNW 9 13 1009.5 - 1.6 - - - - - - -
19/01:30am 22.6 N 7 12 1010.0 - 1.6 - - - - - - -
19/01:00am 22.7 N 6 9 1010.2 - 1.6 - - - - - - -
19/12:30am 22.6 W 3 5 1011.4 - 1.6 - - - - - - -
19/12:00am 23.0 ENE 4 6 1011.6 - 1.2 - - - - - - -
 
Date/Time
EDT
Temp

°C
Wind Pressure Rain
since 9am
mm
Weather Cloud Vis
km
Sea
Height
m
Swell
Dir
 
Speed
knots
Gust
knots
hPa Trend Height
m
Period
s
Dir
18/11:30pm 22.8 N 7 12 1010.1 - 0.6 - - - - - - -
18/11:00pm 22.8 N 5 9 1010.4 - 0.6 - - - - - - -
18/10:30pm 23.5 ENE 3 5 1010.4 - 0.6 - - - - - - -
18/10:00pm 23.6 E 4 5 1010.1 - 0.6 - - - - - - -
18/09:30pm 23.8 NE 4 6 1009.7 - 0.6 - - - - - - -
18/09:00pm 23.7 E 5 7 1009.6 - 0.6 - - - - - - -
18/08:30pm 23.6 E 6 11 1009.2 - 0.6 - - - - - - -
18/08:00pm 23.4 E 8 12 1008.6 - 0.6 - - - - - - -
18/07:30pm 24.5 ESE 9 13 1008.7 - 0.6 - - - - - - -
18/07:00pm 24.8 NW 6 10 1008.3 - 0.6 - - - - - - -
18/06:30pm 24.9 WNW 9 15 1007.3 - 0.6 - - - - - - -
18/06:00pm 25.7 W 12 22 1006.5 - 0.6 - - - - - - -
18/05:44pm 25.5 WNW 11 14 1006.8 - 0.6 - - - - - - -
18/05:40pm 25.2 NNW 8 13 1005.9 - 0.6 - - - - - - -
18/05:30pm 25.2 N 8 13 1004.8 - 0.6 - - - - - - -
18/05:00pm 25.4 N 7 11 1003.8 - 0.6 - - - - - - -
18/04:30pm 25.7 N 6 11 1003.8 - 0.6 - - - - - - -
18/04:00pm 26.3 N 7 11 1004.3 - 0.6 - - - - - - -
18/03:30pm 27.0 N 9 15 1004.3 - 0.6 - - - - - - -
18/03:00pm 27.8 NNE 9 14 1004.9 F 0.6 Fine Mostly cloudy 25 2 1.0 9 NE
18/02:58pm 27.7 NNE 9 14 1005.1 - 0.6 - - - - - - -
18/02:30pm 28.3 N 8 13 1006.1 - 0.6 - - - - - - -
18/02:00pm 28.3 NNE 8 11 1007.1 - 0.6 - - - - - - -
18/01:30pm 26.3 NE 6 11 1007.7 - 0.6 - - - - - - -
18/01:00pm 26.8 NE 6 9 1008.0 - 0.6 - - - - - - -
18/12:30pm 26.1 NE 6 9 1008.6 - 0.6 - - - - - - -
18/12:00pm 26.4 NE 4 6 1009.2 - 0.6 - - - - - - -
18/11:30am 26.9 N 4 8 1009.7 - 0.6 - - - - - - -
18/11:00am 25.4 NNW 5 9 1009.5 - 0.6 - - - - - - -
18/10:30am 24.6 N 4 7 1009.7 - 0.6 - - - - - - -
18/10:00am 23.8 N 3 5 1009.9 - 0.2 - - - - - - -
18/09:30am 23.4 W 4 6 1009.7 - 0.0 - - - - - - -
18/09:00am 23.8 N 3 5 1009.9 R 3.4 Recent th'storm Mostly cloudy 5 <0.5 1.0 10 E
18/08:30am 24.4 W 5 8 1010.3 - 1.2 - - - - - - -
18/08:00am 23.6 SSW 5 7 1009.4 - 1.2 - - - - - - -
18/07:30am 22.1 SSW 5 8 1009.3 - 1.2 - - - - - - -
18/07:00am 21.8 SW 4 7 1009.6 - 1.2 - - - - - - -
18/06:30am 21.4 WSW 5 7 1009.6 - 1.2 - - - - - - -
18/06:00am 21.3 NW 4 7 1009.4 - 1.2 - - - - - - -
18/05:30am 21.6 WNW 9 15 1008.9 - 1.2 - - - - - - -
18/05:27am 21.8 NW 9 15 1008.9 - 1.2 - - - - - - -
18/05:00am 22.2 N 10 16 1007.0 - 1.2 - - - - - - -
18/04:55am 22.1 N 11 16 1006.9 - 1.0 - - - - - - -

Other Formats:

Comma delimited format used in spreadsheet applications
http://www.bom.gov.au/fwo/IDN60701/IDN60701.94589.axf

JavaScript Object Notation format (JSON) in row-major order
http://www.bom.gov.au/fwo/IDN60701/IDN60701.94589.json